メインページ
METAR-TAF:

METAR-TAF

空港 :

サー・シウサガル・ラングーラム国際空港

モーリシャス, モーリシャス

緯度: 20-26S, 経度: 057-40E, 海抜: 55m

現時点の気象観測

当レポートは17分前の09:00(UTC)に作成
南東の風 7kt
気温 26°C
湿度 70%
気圧 1020 hPa
視程10km以上
高度1600ftの千切れ雲あり

METAR: FIMP 200900Z 14007KT 9999 BKN016 26/20 Q1020

時間: 13:17 (09:17 UTC)

予報

当レポートは4時間2分前の05:15(UTC)に作成
予報は20日の 06時(UTC)から 21日の 12時(UTC)まで有効
南/南東の風 5kt
視程10km以上
高度1800ftの雲は散在している
確率 30% :
20日の 15時(UTC)から 21日の 02時(UTC)まで一時的に
視程: 7000m
高度1600ftの千切れ雲あり
高度5000ftの千切れ雲あり
弱いにわか雨

TAF: FIMP 200515Z 2006/2112 16005KT 9999 SCT018 PROB30 TEMPO 2015/2102 7000 -SHRA BKN016 BKN050

4,000以上の空港の気象観測と天気予報(METAR報とTAF報)

利用可能な観測所は地図上に黄色い丸と赤い丸で示す。

丸の上にカーソルを重ねると観測所名を参照できる。

次にクリックすると気象観測と天気予報を参照できる。

マップの切り替え:黒色「×」印の緑ボタンをクリックして拡大、「-」印の緑ボタンをクリックして縮小、緑色の三角印をクリックして隣りの地図に切り替え


METAR-TAF: